Portada
METAR-TAF:

METAR-TAF

Aeroports :

Ghriss, Algèria

latitud: 35-12N, longitud: 000-08E, altitud: 514 m

Observació

L'informe es va fer fa 22 minuts, a les 13:00 UTC
Vent 4 kt del Oest
Temperatura 19°C
Humitat 64%
Pressió 1015 hPa
Visibilitat 10 km o més
Núvols disperses a una alçada de 2600 ft
Escasses núvols a una alçada de 3000 ft, Cumulus congestus.

METAR: DAOV 151300Z 26004KT 9999 SCT026 FEW030TCU 19/12 Q1015

Hora: 14:22 (13:22 UTC)

Pronòstic

L'informe es va fer fa 2 hores i 22 minuts, a les 11:00 UTC
Pronòstic vàlid del 15 a les 12 UTC al 15 a les 21 UTC
Vent 2 kt amb direcció variable
Visibilitat: 8000 m
Núvols disperses a una alçada de 2600 ft
Núvols disperses a una alçada de 10000 ft
Probabilitat 40% :
Temporalment
l' 15 a les 15 UTC al 15 a les 21 UTC
Visibilitat: 5000 m
Núvols disperses a una alçada de 2000 ft, Cumulus congestus.
Cel ennuvolat a una alçada de 2600 ft
pluja

TAF: DAOV 151100Z 1512/1521 VRB02KT 8000 SCT026 SCT100 PROB40 TEMPO 1515/1521 5000 RA SCT020TCU BKN026

Observacions i pronòstics meteorològics de més de 4000 aeroports (METAR i TAF).

Les estacions disponibles són els punts grocs i vermells al mapa.

Posi el ratolí al punt desitjat per veure el nom de l'estació.

Feu clic per veure les observacions i els pronòstics meteorològics.

Per canviar el mapa: feu clic els botons verds amb una creu de color negre per apropar; al botó verd amb un guió per allunyar la imatge; o en les fletxes verdes per a mapes adjacents.


METAR-TAF: